sensor_id;sensor_type;location;lat;lon;timestamp;P1;durP1;ratioP1;P2;durP2;ratioP2
56541;SDS011;42438;53.174;6.730;2023-05-07T00:00:29;27.27;;;15.57;;
56541;SDS011;42438;53.174;6.730;2023-05-07T00:03:00;25.98;;;15.73;;
56541;SDS011;42438;53.174;6.730;2023-05-07T00:05:31;25.63;;;16.90;;
56541;SDS011;42438;53.174;6.730;2023-05-07T00:08:02;29.23;;;17.58;;
56541;SDS011;42438;53.174;6.730;2023-05-07T00:10:33;28.77;;;16.52;;
56541;SDS011;42438;53.174;6.730;2023-05-07T00:13:03;26.17;;;15.93;;
56541;SDS011;42438;53.174;6.730;2023-05-07T00:15:34;25.25;;;15.95;;
56541;SDS011;42438;53.174;6.730;2023-05-07T00:18:04;28.38;;;16.60;;
56541;SDS011;42438;53.174;6.730;2023-05-07T00:20:35;25.90;;;15.43;;
56541;SDS011;42438;53.174;6.730;2023-05-07T00:23:06;25.50;;;16.00;;
56541;SDS011;42438;53.174;6.730;2023-05-07T00:25:36;27.73;;;16.63;;
56541;SDS011;42438;53.174;6.730;2023-05-07T00:28:07;26.40;;;16.48;;
56541;SDS011;42438;53.174;6.730;2023-05-07T00:30:37;25.02;;;16.55;;
56541;SDS011;42438;53.174;6.730;2023-05-07T00:33:08;27.52;;;16.02;;
56541;SDS011;42438;53.174;6.730;2023-05-07T00:35:39;29.13;;;16.63;;
56541;SDS011;42438;53.174;6.730;2023-05-07T00:38:09;28.35;;;17.05;;
56541;SDS011;42438;53.174;6.730;2023-05-07T00:40:40;28.70;;;16.63;;
56541;SDS011;42438;53.174;6.730;2023-05-07T00:43:10;29.90;;;17.65;;
56541;SDS011;42438;53.174;6.730;2023-05-07T00:45:42;29.10;;;17.75;;
56541;SDS011;42438;53.174;6.730;2023-05-07T00:48:13;31.83;;;17.92;;
56541;SDS011;42438;53.174;6.730;2023-05-07T00:50:44;30.77;;;18.13;;
56541;SDS011;42438;53.174;6.730;2023-05-07T00:53:15;29.48;;;18.10;;
56541;SDS011;42438;53.174;6.730;2023-05-07T00:55:46;33.80;;;18.70;;
56541;SDS011;42438;53.174;6.730;2023-05-07T00:58:17;31.13;;;18.50;;
56541;SDS011;42438;53.174;6.730;2023-05-07T01:00:48;31.02;;;17.98;;
56541;SDS011;42438;53.174;6.730;2023-05-07T01:03:19;29.23;;;18.05;;
56541;SDS011;42438;53.174;6.730;2023-05-07T01:05:50;33.17;;;19.58;;
56541;SDS011;42438;53.174;6.730;2023-05-07T01:08:23;31.98;;;19.00;;
56541;SDS011;42438;53.174;6.730;2023-05-07T01:10:56;32.65;;;18.10;;
56541;SDS011;42438;53.174;6.730;2023-05-07T01:13:27;29.50;;;17.80;;
56541;SDS011;42438;53.174;6.730;2023-05-07T01:15:59;29.90;;;18.50;;
56541;SDS011;42438;53.174;6.730;2023-05-07T01:18:30;30.85;;;17.80;;
56541;SDS011;42438;53.174;6.730;2023-05-07T01:21:00;31.77;;;17.42;;
56541;SDS011;42438;53.174;6.730;2023-05-07T01:23:33;28.88;;;16.83;;
56541;SDS011;42438;53.174;6.730;2023-05-07T01:26:05;28.75;;;16.70;;
56541;SDS011;42438;53.174;6.730;2023-05-07T01:28:36;30.17;;;17.77;;
56541;SDS011;42438;53.174;6.730;2023-05-07T01:31:06;31.25;;;16.83;;
56541;SDS011;42438;53.174;6.730;2023-05-07T01:33:38;30.13;;;17.70;;
56541;SDS011;42438;53.174;6.730;2023-05-07T01:36:11;28.42;;;17.00;;
56541;SDS011;42438;53.174;6.730;2023-05-07T01:38:44;36.17;;;18.48;;
56541;SDS011;42438;53.174;6.730;2023-05-07T01:41:15;32.67;;;18.88;;
56541;SDS011;42438;53.174;6.730;2023-05-07T01:43:46;28.90;;;16.50;;
56541;SDS011;42438;53.174;6.730;2023-05-07T01:46:17;31.60;;;18.60;;
56541;SDS011;42438;53.174;6.730;2023-05-07T01:48:48;32.63;;;17.63;;
56541;SDS011;42438;53.174;6.730;2023-05-07T01:51:20;28.33;;;17.65;;
56541;SDS011;42438;53.174;6.730;2023-05-07T01:53:52;31.80;;;18.70;;
56541;SDS011;42438;53.174;6.730;2023-05-07T01:56:23;32.90;;;18.80;;
56541;SDS011;42438;53.174;6.730;2023-05-07T01:58:54;31.45;;;18.25;;
56541;SDS011;42438;53.174;6.730;2023-05-07T02:01:25;34.83;;;18.88;;
56541;SDS011;42438;53.174;6.730;2023-05-07T02:03:56;30.10;;;17.98;;
56541;SDS011;42438;53.174;6.730;2023-05-07T02:06:26;34.83;;;18.67;;
56541;SDS011;42438;53.174;6.730;2023-05-07T02:08:57;34.08;;;18.17;;
56541;SDS011;42438;53.174;6.730;2023-05-07T02:11:28;26.67;;;17.77;;
56541;SDS011;42438;53.174;6.730;2023-05-07T02:13:58;36.20;;;18.45;;
56541;SDS011;42438;53.174;6.730;2023-05-07T02:16:29;35.00;;;18.33;;
56541;SDS011;42438;53.174;6.730;2023-05-07T02:18:59;31.27;;;19.60;;
56541;SDS011;42438;53.174;6.730;2023-05-07T02:21:30;33.33;;;19.10;;
56541;SDS011;42438;53.174;6.730;2023-05-07T02:24:00;32.03;;;18.00;;
56541;SDS011;42438;53.174;6.730;2023-05-07T02:26:31;32.53;;;18.02;;
56541;SDS011;42438;53.174;6.730;2023-05-07T02:29:02;32.33;;;19.88;;
56541;SDS011;42438;53.174;6.730;2023-05-07T02:31:32;32.78;;;19.08;;
56541;SDS011;42438;53.174;6.730;2023-05-07T02:34:04;32.88;;;19.50;;
56541;SDS011;42438;53.174;6.730;2023-05-07T02:36:34;31.38;;;18.58;;
56541;SDS011;42438;53.174;6.730;2023-05-07T02:39:05;34.72;;;19.50;;
56541;SDS011;42438;53.174;6.730;2023-05-07T02:41:35;35.97;;;19.35;;
56541;SDS011;42438;53.174;6.730;2023-05-07T02:44:06;33.63;;;19.35;;
56541;SDS011;42438;53.174;6.730;2023-05-07T02:46:37;34.80;;;19.55;;
56541;SDS011;42438;53.174;6.730;2023-05-07T02:49:07;34.10;;;18.30;;
56541;SDS011;42438;53.174;6.730;2023-05-07T02:51:38;37.15;;;19.77;;
56541;SDS011;42438;53.174;6.730;2023-05-07T02:54:08;34.33;;;19.38;;
56541;SDS011;42438;53.174;6.730;2023-05-07T02:56:39;31.38;;;19.00;;
56541;SDS011;42438;53.174;6.730;2023-05-07T02:59:10;36.25;;;19.55;;
56541;SDS011;42438;53.174;6.730;2023-05-07T03:01:40;35.25;;;19.02;;
56541;SDS011;42438;53.174;6.730;2023-05-07T03:04:13;36.20;;;18.73;;
56541;SDS011;42438;53.174;6.730;2023-05-07T03:06:44;31.30;;;18.15;;
56541;SDS011;42438;53.174;6.730;2023-05-07T03:09:15;33.05;;;19.15;;
56541;SDS011;42438;53.174;6.730;2023-05-07T03:11:46;38.80;;;20.17;;
56541;SDS011;42438;53.174;6.730;2023-05-07T03:14:17;34.80;;;19.83;;
56541;SDS011;42438;53.174;6.730;2023-05-07T03:16:48;34.00;;;18.75;;
56541;SDS011;42438;53.174;6.730;2023-05-07T03:19:19;32.13;;;18.60;;
56541;SDS011;42438;53.174;6.730;2023-05-07T03:21:50;36.30;;;19.48;;
56541;SDS011;42438;53.174;6.730;2023-05-07T03:24:20;34.30;;;19.13;;
56541;SDS011;42438;53.174;6.730;2023-05-07T03:26:51;34.65;;;19.48;;
56541;SDS011;42438;53.174;6.730;2023-05-07T03:29:22;37.45;;;20.60;;
56541;SDS011;42438;53.174;6.730;2023-05-07T03:31:52;37.80;;;20.38;;
56541;SDS011;42438;53.174;6.730;2023-05-07T03:34:23;35.55;;;20.50;;
56541;SDS011;42438;53.174;6.730;2023-05-07T03:36:53;34.55;;;20.08;;
56541;SDS011;42438;53.174;6.730;2023-05-07T03:39:25;33.75;;;19.42;;
56541;SDS011;42438;53.174;6.730;2023-05-07T03:41:56;38.50;;;19.92;;
56541;SDS011;42438;53.174;6.730;2023-05-07T03:44:27;34.28;;;20.25;;
56541;SDS011;42438;53.174;6.730;2023-05-07T03:46:57;36.58;;;19.27;;
56541;SDS011;42438;53.174;6.730;2023-05-07T03:49:28;37.15;;;20.10;;
56541;SDS011;42438;53.174;6.730;2023-05-07T03:51:58;34.35;;;19.25;;
56541;SDS011;42438;53.174;6.730;2023-05-07T03:54:29;34.65;;;18.63;;
56541;SDS011;42438;53.174;6.730;2023-05-07T03:57:00;36.08;;;19.60;;
56541;SDS011;42438;53.174;6.730;2023-05-07T03:59:31;36.55;;;19.50;;
56541;SDS011;42438;53.174;6.730;2023-05-07T04:02:02;37.95;;;20.30;;
56541;SDS011;42438;53.174;6.730;2023-05-07T04:04:33;34.88;;;19.70;;
56541;SDS011;42438;53.174;6.730;2023-05-07T04:07:04;34.63;;;20.05;;
56541;SDS011;42438;53.174;6.730;2023-05-07T04:09:34;33.97;;;19.77;;
56541;SDS011;42438;53.174;6.730;2023-05-07T04:12:05;32.80;;;18.08;;
56541;SDS011;42438;53.174;6.730;2023-05-07T04:14:36;34.67;;;18.67;;
56541;SDS011;42438;53.174;6.730;2023-05-07T04:17:06;32.17;;;17.95;;
56541;SDS011;42438;53.174;6.730;2023-05-07T04:19:39;33.38;;;18.42;;
56541;SDS011;42438;53.174;6.730;2023-05-07T04:22:15;34.97;;;19.77;;
56541;SDS011;42438;53.174;6.730;2023-05-07T04:24:45;30.77;;;18.38;;
56541;SDS011;42438;53.174;6.730;2023-05-07T04:27:16;35.47;;;18.77;;
56541;SDS011;42438;53.174;6.730;2023-05-07T04:29:46;32.70;;;18.60;;
56541;SDS011;42438;53.174;6.730;2023-05-07T04:32:17;33.78;;;18.20;;
56541;SDS011;42438;53.174;6.730;2023-05-07T04:34:48;30.92;;;16.92;;
56541;SDS011;42438;53.174;6.730;2023-05-07T04:37:18;31.38;;;17.85;;
56541;SDS011;42438;53.174;6.730;2023-05-07T04:39:49;31.92;;;17.85;;
56541;SDS011;42438;53.174;6.730;2023-05-07T04:42:20;33.10;;;18.48;;
56541;SDS011;42438;53.174;6.730;2023-05-07T04:44:52;29.70;;;16.85;;
56541;SDS011;42438;53.174;6.730;2023-05-07T04:47:23;33.97;;;18.15;;
56541;SDS011;42438;53.174;6.730;2023-05-07T04:49:54;30.15;;;17.00;;
56541;SDS011;42438;53.174;6.730;2023-05-07T04:52:25;31.55;;;17.35;;
56541;SDS011;42438;53.174;6.730;2023-05-07T04:54:55;31.67;;;17.40;;
56541;SDS011;42438;53.174;6.730;2023-05-07T04:57:26;28.90;;;17.17;;
56541;SDS011;42438;53.174;6.730;2023-05-07T04:59:57;28.67;;;16.92;;
56541;SDS011;42438;53.174;6.730;2023-05-07T05:02:28;30.10;;;17.63;;
56541;SDS011;42438;53.174;6.730;2023-05-07T05:04:58;27.42;;;16.45;;
56541;SDS011;42438;53.174;6.730;2023-05-07T05:07:29;31.13;;;17.65;;
56541;SDS011;42438;53.174;6.730;2023-05-07T05:10:01;28.67;;;18.05;;
56541;SDS011;42438;53.174;6.730;2023-05-07T05:12:33;29.98;;;18.05;;
56541;SDS011;42438;53.174;6.730;2023-05-07T05:15:04;28.45;;;17.02;;
56541;SDS011;42438;53.174;6.730;2023-05-07T05:17:35;30.35;;;17.60;;
56541;SDS011;42438;53.174;6.730;2023-05-07T05:20:06;31.95;;;17.40;;
56541;SDS011;42438;53.174;6.730;2023-05-07T05:22:37;28.52;;;16.58;;
56541;SDS011;42438;53.174;6.730;2023-05-07T05:25:08;27.25;;;17.05;;
56541;SDS011;42438;53.174;6.730;2023-05-07T05:27:39;25.55;;;15.32;;
56541;SDS011;42438;53.174;6.730;2023-05-07T05:30:10;28.75;;;16.73;;
56541;SDS011;42438;53.174;6.730;2023-05-07T05:32:41;28.38;;;16.58;;
56541;SDS011;42438;53.174;6.730;2023-05-07T05:35:11;29.15;;;17.15;;
56541;SDS011;42438;53.174;6.730;2023-05-07T05:37:42;25.88;;;16.08;;
56541;SDS011;42438;53.174;6.730;2023-05-07T05:40:13;28.52;;;16.83;;
56541;SDS011;42438;53.174;6.730;2023-05-07T05:42:43;30.45;;;17.23;;
56541;SDS011;42438;53.174;6.730;2023-05-07T05:45:14;25.88;;;15.93;;
56541;SDS011;42438;53.174;6.730;2023-05-07T05:47:45;27.55;;;16.27;;
56541;SDS011;42438;53.174;6.730;2023-05-07T05:50:15;29.70;;;16.10;;
56541;SDS011;42438;53.174;6.730;2023-05-07T05:52:46;29.55;;;16.63;;
56541;SDS011;42438;53.174;6.730;2023-05-07T05:55:17;26.10;;;15.57;;
56541;SDS011;42438;53.174;6.730;2023-05-07T05:57:48;25.25;;;15.52;;
56541;SDS011;42438;53.174;6.730;2023-05-07T06:00:18;24.90;;;16.23;;
56541;SDS011;42438;53.174;6.730;2023-05-07T06:02:52;27.90;;;16.20;;
56541;SDS011;42438;53.174;6.730;2023-05-07T06:05:22;25.20;;;15.48;;
56541;SDS011;42438;53.174;6.730;2023-05-07T06:07:53;25.80;;;16.13;;
56541;SDS011;42438;53.174;6.730;2023-05-07T06:10:24;27.08;;;16.33;;
56541;SDS011;42438;53.174;6.730;2023-05-07T06:12:55;24.15;;;14.57;;
56541;SDS011;42438;53.174;6.730;2023-05-07T06:15:26;28.30;;;16.60;;
56541;SDS011;42438;53.174;6.730;2023-05-07T06:17:57;27.75;;;16.95;;
56541;SDS011;42438;53.174;6.730;2023-05-07T06:20:27;26.80;;;16.77;;
56541;SDS011;42438;53.174;6.730;2023-05-07T06:22:58;28.65;;;17.42;;
56541;SDS011;42438;53.174;6.730;2023-05-07T06:25:28;27.27;;;16.92;;
56541;SDS011;42438;53.174;6.730;2023-05-07T06:27:59;26.98;;;16.65;;
56541;SDS011;42438;53.174;6.730;2023-05-07T06:30:30;27.83;;;16.60;;
56541;SDS011;42438;53.174;6.730;2023-05-07T06:33:00;30.52;;;16.58;;
56541;SDS011;42438;53.174;6.730;2023-05-07T06:35:31;26.08;;;16.17;;
56541;SDS011;42438;53.174;6.730;2023-05-07T06:38:02;29.67;;;17.25;;
56541;SDS011;42438;53.174;6.730;2023-05-07T06:40:32;28.75;;;15.82;;
56541;SDS011;42438;53.174;6.730;2023-05-07T06:43:03;27.77;;;16.33;;
56541;SDS011;42438;53.174;6.730;2023-05-07T06:45:33;28.17;;;17.20;;
56541;SDS011;42438;53.174;6.730;2023-05-07T06:48:04;27.75;;;16.48;;
56541;SDS011;42438;53.174;6.730;2023-05-07T06:50:35;25.85;;;15.05;;
56541;SDS011;42438;53.174;6.730;2023-05-07T06:53:05;28.05;;;15.98;;
56541;SDS011;42438;53.174;6.730;2023-05-07T06:55:36;28.58;;;15.80;;
56541;SDS011;42438;53.174;6.730;2023-05-07T06:58:08;26.48;;;15.45;;
56541;SDS011;42438;53.174;6.730;2023-05-07T07:00:38;30.90;;;17.02;;
56541;SDS011;42438;53.174;6.730;2023-05-07T07:03:10;24.05;;;14.18;;
56541;SDS011;42438;53.174;6.730;2023-05-07T07:05:41;27.45;;;15.63;;
56541;SDS011;42438;53.174;6.730;2023-05-07T07:08:12;26.42;;;15.77;;
56541;SDS011;42438;53.174;6.730;2023-05-07T07:10:43;27.73;;;15.43;;
56541;SDS011;42438;53.174;6.730;2023-05-07T07:13:13;25.80;;;15.27;;
56541;SDS011;42438;53.174;6.730;2023-05-07T07:15:44;27.55;;;14.65;;
56541;SDS011;42438;53.174;6.730;2023-05-07T07:18:15;26.50;;;14.43;;
56541;SDS011;42438;53.174;6.730;2023-05-07T07:20:45;27.55;;;14.80;;
56541;SDS011;42438;53.174;6.730;2023-05-07T07:23:16;28.23;;;15.77;;
56541;SDS011;42438;53.174;6.730;2023-05-07T07:25:46;28.08;;;15.45;;
56541;SDS011;42438;53.174;6.730;2023-05-07T07:28:17;27.08;;;15.93;;
56541;SDS011;42438;53.174;6.730;2023-05-07T07:30:51;31.45;;;17.13;;
56541;SDS011;42438;53.174;6.730;2023-05-07T07:33:21;27.38;;;15.57;;
56541;SDS011;42438;53.174;6.730;2023-05-07T07:35:52;26.38;;;15.02;;
56541;SDS011;42438;53.174;6.730;2023-05-07T07:38:22;25.90;;;16.23;;
56541;SDS011;42438;53.174;6.730;2023-05-07T07:40:53;27.92;;;16.08;;
56541;SDS011;42438;53.174;6.730;2023-05-07T07:43:24;25.92;;;14.35;;
56541;SDS011;42438;53.174;6.730;2023-05-07T07:45:55;24.55;;;14.48;;
56541;SDS011;42438;53.174;6.730;2023-05-07T07:48:25;26.35;;;14.98;;
56541;SDS011;42438;53.174;6.730;2023-05-07T07:50:56;27.40;;;15.18;;
56541;SDS011;42438;53.174;6.730;2023-05-07T07:53:27;25.23;;;15.70;;
56541;SDS011;42438;53.174;6.730;2023-05-07T07:55:57;25.85;;;14.55;;
56541;SDS011;42438;53.174;6.730;2023-05-07T07:58:28;22.60;;;14.32;;
56541;SDS011;42438;53.174;6.730;2023-05-07T08:00:58;25.38;;;14.73;;
56541;SDS011;42438;53.174;6.730;2023-05-07T08:03:29;25.95;;;14.93;;
56541;SDS011;42438;53.174;6.730;2023-05-07T08:06:02;26.08;;;15.07;;
56541;SDS011;42438;53.174;6.730;2023-05-07T08:08:33;25.88;;;14.88;;
56541;SDS011;42438;53.174;6.730;2023-05-07T08:11:03;27.77;;;15.20;;
56541;SDS011;42438;53.174;6.730;2023-05-07T08:13:34;27.83;;;16.15;;
56541;SDS011;42438;53.174;6.730;2023-05-07T08:16:05;24.17;;;15.07;;
56541;SDS011;42438;53.174;6.730;2023-05-07T08:18:36;26.40;;;14.27;;
56541;SDS011;42438;53.174;6.730;2023-05-07T08:21:06;25.17;;;15.13;;
56541;SDS011;42438;53.174;6.730;2023-05-07T08:23:37;25.52;;;14.48;;
56541;SDS011;42438;53.174;6.730;2023-05-07T08:26:08;27.33;;;15.63;;
56541;SDS011;42438;53.174;6.730;2023-05-07T08:28:38;24.75;;;15.00;;
56541;SDS011;42438;53.174;6.730;2023-05-07T08:31:09;26.02;;;15.10;;
56541;SDS011;42438;53.174;6.730;2023-05-07T08:33:40;26.55;;;15.23;;
56541;SDS011;42438;53.174;6.730;2023-05-07T08:36:11;25.85;;;16.02;;
56541;SDS011;42438;53.174;6.730;2023-05-07T08:38:41;25.08;;;14.63;;
56541;SDS011;42438;53.174;6.730;2023-05-07T08:41:14;25.25;;;14.82;;
56541;SDS011;42438;53.174;6.730;2023-05-07T08:43:47;23.48;;;14.15;;
56541;SDS011;42438;53.174;6.730;2023-05-07T08:46:20;26.08;;;15.18;;
56541;SDS011;42438;53.174;6.730;2023-05-07T08:48:51;28.08;;;16.35;;
56541;SDS011;42438;53.174;6.730;2023-05-07T08:51:22;24.85;;;15.32;;
56541;SDS011;42438;53.174;6.730;2023-05-07T08:53:53;25.90;;;14.88;;
56541;SDS011;42438;53.174;6.730;2023-05-07T08:56:23;31.75;;;16.13;;
56541;SDS011;42438;53.174;6.730;2023-05-07T08:58:55;25.17;;;14.30;;
56541;SDS011;42438;53.174;6.730;2023-05-07T09:01:28;25.50;;;14.50;;
56541;SDS011;42438;53.174;6.730;2023-05-07T09:03:59;23.60;;;14.43;;
56541;SDS011;42438;53.174;6.730;2023-05-07T09:06:30;25.23;;;14.80;;
56541;SDS011;42438;53.174;6.730;2023-05-07T09:09:01;26.15;;;14.88;;
56541;SDS011;42438;53.174;6.730;2023-05-07T09:11:35;23.55;;;14.25;;
56541;SDS011;42438;53.174;6.730;2023-05-07T09:14:05;25.50;;;15.13;;
56541;SDS011;42438;53.174;6.730;2023-05-07T09:16:36;24.58;;;14.77;;
56541;SDS011;42438;53.174;6.730;2023-05-07T09:19:07;26.77;;;14.98;;
56541;SDS011;42438;53.174;6.730;2023-05-07T09:21:37;24.40;;;14.93;;
56541;SDS011;42438;53.174;6.730;2023-05-07T09:24:08;28.83;;;15.68;;
56541;SDS011;42438;53.174;6.730;2023-05-07T09:26:39;26.08;;;15.20;;
56541;SDS011;42438;53.174;6.730;2023-05-07T09:29:10;26.55;;;15.50;;
56541;SDS011;42438;53.174;6.730;2023-05-07T09:31:40;22.42;;;14.77;;
56541;SDS011;42438;53.174;6.730;2023-05-07T09:34:11;24.33;;;15.32;;
56541;SDS011;42438;53.174;6.730;2023-05-07T09:36:42;22.48;;;13.82;;
56541;SDS011;42438;53.174;6.730;2023-05-07T09:39:12;24.58;;;13.35;;
56541;SDS011;42438;53.174;6.730;2023-05-07T09:41:44;23.17;;;14.32;;
56541;SDS011;42438;53.174;6.730;2023-05-07T09:44:15;24.48;;;14.20;;
56541;SDS011;42438;53.174;6.730;2023-05-07T09:46:51;23.00;;;14.13;;
56541;SDS011;42438;53.174;6.730;2023-05-07T09:49:24;21.77;;;13.43;;
56541;SDS011;42438;53.174;6.730;2023-05-07T09:52:03;23.08;;;13.68;;
56541;SDS011;42438;53.174;6.730;2023-05-07T09:54:36;21.98;;;13.32;;
56541;SDS011;42438;53.174;6.730;2023-05-07T09:57:08;22.23;;;14.07;;
56541;SDS011;42438;53.174;6.730;2023-05-07T09:59:42;21.83;;;13.63;;
56541;SDS011;42438;53.174;6.730;2023-05-07T10:02:13;23.05;;;13.52;;
56541;SDS011;42438;53.174;6.730;2023-05-07T10:04:45;21.67;;;13.68;;
56541;SDS011;42438;53.174;6.730;2023-05-07T10:07:19;23.00;;;13.65;;
56541;SDS011;42438;53.174;6.730;2023-05-07T10:09:51;23.83;;;14.20;;
56541;SDS011;42438;53.174;6.730;2023-05-07T10:12:22;21.83;;;13.00;;
56541;SDS011;42438;53.174;6.730;2023-05-07T10:14:54;20.30;;;13.43;;
56541;SDS011;42438;53.174;6.730;2023-05-07T10:17:26;19.38;;;13.23;;
56541;SDS011;42438;53.174;6.730;2023-05-07T10:19:56;19.33;;;12.88;;
56541;SDS011;42438;53.174;6.730;2023-05-07T10:22:27;20.02;;;12.68;;
56541;SDS011;42438;53.174;6.730;2023-05-07T10:25:01;19.77;;;12.73;;
56541;SDS011;42438;53.174;6.730;2023-05-07T10:27:33;19.55;;;12.75;;
56541;SDS011;42438;53.174;6.730;2023-05-07T10:33:08;20.08;;;12.82;;
56541;SDS011;42438;53.174;6.730;2023-05-07T10:35:42;18.58;;;12.25;;
56541;SDS011;42438;53.174;6.730;2023-05-07T10:40:45;19.70;;;12.68;;
56541;SDS011;42438;53.174;6.730;2023-05-07T10:43:16;18.13;;;11.85;;
56541;SDS011;42438;53.174;6.730;2023-05-07T10:51:34;19.08;;;12.30;;
56541;SDS011;42438;53.174;6.730;2023-05-07T10:56:42;16.92;;;11.48;;
56541;SDS011;42438;53.174;6.730;2023-05-07T11:02:04;17.73;;;11.20;;
56541;SDS011;42438;53.174;6.730;2023-05-07T11:04:36;17.08;;;11.75;;
56541;SDS011;42438;53.174;6.730;2023-05-07T11:15:08;30.88;;;12.82;;
56541;SDS011;42438;53.174;6.730;2023-05-07T11:17:58;20.05;;;11.60;;
56541;SDS011;42438;53.174;6.730;2023-05-07T11:26:04;19.67;;;11.35;;
56541;SDS011;42438;53.174;6.730;2023-05-07T11:28:39;17.42;;;11.93;;
56541;SDS011;42438;53.174;6.730;2023-05-07T11:31:11;18.50;;;12.65;;
56541;SDS011;42438;53.174;6.730;2023-05-07T11:33:43;19.60;;;11.63;;
56541;SDS011;42438;53.174;6.730;2023-05-07T11:36:14;16.45;;;11.43;;
56541;SDS011;42438;53.174;6.730;2023-05-07T11:38:45;16.55;;;12.00;;
56541;SDS011;42438;53.174;6.730;2023-05-07T11:41:16;15.13;;;10.43;;
56541;SDS011;42438;53.174;6.730;2023-05-07T11:43:55;14.90;;;11.07;;
56541;SDS011;42438;53.174;6.730;2023-05-07T11:46:27;15.23;;;10.80;;
56541;SDS011;42438;53.174;6.730;2023-05-07T11:48:58;15.32;;;11.10;;
56541;SDS011;42438;53.174;6.730;2023-05-07T11:51:31;16.52;;;11.70;;
56541;SDS011;42438;53.174;6.730;2023-05-07T11:54:03;15.63;;;11.02;;
56541;SDS011;42438;53.174;6.730;2023-05-07T11:56:38;14.65;;;11.88;;
56541;SDS011;42438;53.174;6.730;2023-05-07T11:59:09;15.63;;;10.90;;
56541;SDS011;42438;53.174;6.730;2023-05-07T12:01:40;14.27;;;10.93;;
56541;SDS011;42438;53.174;6.730;2023-05-07T12:04:10;15.98;;;11.40;;
56541;SDS011;42438;53.174;6.730;2023-05-07T12:06:41;15.77;;;11.45;;
56541;SDS011;42438;53.174;6.730;2023-05-07T12:09:11;15.88;;;11.07;;
56541;SDS011;42438;53.174;6.730;2023-05-07T12:11:45;13.48;;;9.88;;
56541;SDS011;42438;53.174;6.730;2023-05-07T12:14:16;14.45;;;11.50;;
56541;SDS011;42438;53.174;6.730;2023-05-07T12:16:47;13.55;;;10.70;;
56541;SDS011;42438;53.174;6.730;2023-05-07T12:19:17;13.48;;;10.43;;
56541;SDS011;42438;53.174;6.730;2023-05-07T12:21:48;15.48;;;11.10;;
56541;SDS011;42438;53.174;6.730;2023-05-07T12:24:19;15.20;;;11.43;;
56541;SDS011;42438;53.174;6.730;2023-05-07T12:26:50;30.73;;;13.48;;
56541;SDS011;42438;53.174;6.730;2023-05-07T12:29:21;22.95;;;10.50;;
56541;SDS011;42438;53.174;6.730;2023-05-07T12:31:52;14.43;;;10.52;;
56541;SDS011;42438;53.174;6.730;2023-05-07T12:34:23;13.68;;;10.68;;
56541;SDS011;42438;53.174;6.730;2023-05-07T12:36:54;13.77;;;10.48;;
56541;SDS011;42438;53.174;6.730;2023-05-07T12:39:25;14.45;;;10.90;;
56541;SDS011;42438;53.174;6.730;2023-05-07T12:41:56;16.58;;;11.10;;
56541;SDS011;42438;53.174;6.730;2023-05-07T12:44:29;15.00;;;11.63;;
56541;SDS011;42438;53.174;6.730;2023-05-07T12:47:01;13.82;;;10.90;;
56541;SDS011;42438;53.174;6.730;2023-05-07T12:49:34;15.00;;;11.50;;
56541;SDS011;42438;53.174;6.730;2023-05-07T12:52:07;15.38;;;11.25;;
56541;SDS011;42438;53.174;6.730;2023-05-07T12:54:38;14.15;;;11.35;;
56541;SDS011;42438;53.174;6.730;2023-05-07T12:57:09;15.05;;;10.95;;
56541;SDS011;42438;53.174;6.730;2023-05-07T12:59:41;15.88;;;11.30;;
56541;SDS011;42438;53.174;6.730;2023-05-07T13:02:12;14.80;;;11.10;;
56541;SDS011;42438;53.174;6.730;2023-05-07T13:04:42;13.93;;;11.27;;
56541;SDS011;42438;53.174;6.730;2023-05-07T13:07:13;13.98;;;10.77;;
56541;SDS011;42438;53.174;6.730;2023-05-07T13:09:44;13.65;;;11.20;;
56541;SDS011;42438;53.174;6.730;2023-05-07T13:12:14;14.48;;;11.27;;
56541;SDS011;42438;53.174;6.730;2023-05-07T13:14:45;14.30;;;11.32;;
56541;SDS011;42438;53.174;6.730;2023-05-07T13:17:15;12.50;;;10.13;;
56541;SDS011;42438;53.174;6.730;2023-05-07T13:19:46;13.23;;;10.85;;
56541;SDS011;42438;53.174;6.730;2023-05-07T13:22:17;13.00;;;10.55;;
56541;SDS011;42438;53.174;6.730;2023-05-07T13:24:47;14.73;;;10.68;;
56541;SDS011;42438;53.174;6.730;2023-05-07T13:27:18;12.82;;;10.70;;
56541;SDS011;42438;53.174;6.730;2023-05-07T13:29:49;12.15;;;9.90;;
56541;SDS011;42438;53.174;6.730;2023-05-07T13:32:20;11.52;;;9.23;;
56541;SDS011;42438;53.174;6.730;2023-05-07T13:34:50;10.85;;;9.02;;
56541;SDS011;42438;53.174;6.730;2023-05-07T13:37:21;12.75;;;10.27;;
56541;SDS011;42438;53.174;6.730;2023-05-07T13:39:52;13.40;;;10.10;;
56541;SDS011;42438;53.174;6.730;2023-05-07T13:42:22;11.18;;;9.63;;
56541;SDS011;42438;53.174;6.730;2023-05-07T13:44:53;12.10;;;10.30;;
56541;SDS011;42438;53.174;6.730;2023-05-07T13:47:23;14.82;;;10.35;;
56541;SDS011;42438;53.174;6.730;2023-05-07T13:49:54;12.50;;;9.55;;
56541;SDS011;42438;53.174;6.730;2023-05-07T13:52:25;12.98;;;10.38;;
56541;SDS011;42438;53.174;6.730;2023-05-07T13:54:56;10.93;;;9.65;;
56541;SDS011;42438;53.174;6.730;2023-05-07T13:57:28;13.68;;;9.68;;
56541;SDS011;42438;53.174;6.730;2023-05-07T13:59:59;11.30;;;9.70;;
56541;SDS011;42438;53.174;6.730;2023-05-07T14:02:29;12.02;;;9.55;;
56541;SDS011;42438;53.174;6.730;2023-05-07T14:05:01;12.75;;;10.10;;
56541;SDS011;42438;53.174;6.730;2023-05-07T14:07:31;12.07;;;9.95;;
56541;SDS011;42438;53.174;6.730;2023-05-07T14:10:02;15.57;;;10.95;;
56541;SDS011;42438;53.174;6.730;2023-05-07T14:12:33;11.63;;;9.95;;
56541;SDS011;42438;53.174;6.730;2023-05-07T14:15:04;12.55;;;9.63;;
56541;SDS011;42438;53.174;6.730;2023-05-07T14:17:35;13.15;;;9.98;;
56541;SDS011;42438;53.174;6.730;2023-05-07T14:20:05;11.85;;;9.93;;
56541;SDS011;42438;53.174;6.730;2023-05-07T14:22:37;11.30;;;8.82;;
56541;SDS011;42438;53.174;6.730;2023-05-07T14:25:07;11.50;;;9.55;;
56541;SDS011;42438;53.174;6.730;2023-05-07T14:27:39;11.20;;;8.90;;
56541;SDS011;42438;53.174;6.730;2023-05-07T14:30:10;12.02;;;10.20;;
56541;SDS011;42438;53.174;6.730;2023-05-07T14:32:41;11.50;;;9.65;;
56541;SDS011;42438;53.174;6.730;2023-05-07T14:35:11;12.52;;;10.73;;
56541;SDS011;42438;53.174;6.730;2023-05-07T14:37:42;13.52;;;10.38;;
56541;SDS011;42438;53.174;6.730;2023-05-07T14:40:13;10.90;;;9.40;;
56541;SDS011;42438;53.174;6.730;2023-05-07T14:42:44;11.65;;;9.82;;
56541;SDS011;42438;53.174;6.730;2023-05-07T14:45:15;14.02;;;9.80;;
56541;SDS011;42438;53.174;6.730;2023-05-07T14:47:45;10.77;;;9.35;;
56541;SDS011;42438;53.174;6.730;2023-05-07T14:50:16;12.13;;;9.60;;
56541;SDS011;42438;53.174;6.730;2023-05-07T14:52:47;12.57;;;10.38;;
56541;SDS011;42438;53.174;6.730;2023-05-07T14:55:18;12.07;;;10.35;;
56541;SDS011;42438;53.174;6.730;2023-05-07T14:57:49;12.68;;;9.55;;
56541;SDS011;42438;53.174;6.730;2023-05-07T15:00:19;11.73;;;9.60;;
56541;SDS011;42438;53.174;6.730;2023-05-07T15:02:50;12.00;;;9.70;;
56541;SDS011;42438;53.174;6.730;2023-05-07T15:05:21;12.15;;;9.30;;
56541;SDS011;42438;53.174;6.730;2023-05-07T15:07:51;13.25;;;10.90;;
56541;SDS011;42438;53.174;6.730;2023-05-07T15:10:22;12.77;;;9.73;;
56541;SDS011;42438;53.174;6.730;2023-05-07T15:12:52;13.00;;;10.43;;
56541;SDS011;42438;53.174;6.730;2023-05-07T15:15:23;14.35;;;9.80;;